createdAt,value
2022-09-12T00:01:20.132Z,101291.66
2022-09-12T00:03:47.140Z,101282.25
2022-09-12T00:06:22.885Z,101282.44
2022-09-12T00:08:50.745Z,101281.72
2022-09-12T00:11:17.857Z,101281.19
2022-09-12T00:13:44.568Z,101278.28
2022-09-12T00:16:22.334Z,101283.97
2022-09-12T00:18:49.627Z,101280.41
2022-09-12T00:21:17.902Z,101278.88
2022-09-12T00:23:45.357Z,101277.72
2022-09-12T00:26:12.663Z,101283.38
2022-09-12T00:28:40.963Z,101273.00
2022-09-12T00:31:11.763Z,101269.94
2022-09-12T00:33:38.663Z,101264.81
2022-09-12T00:36:11.754Z,101271.00
2022-09-12T00:38:38.637Z,101271.13
2022-09-12T00:41:06.142Z,101266.72
2022-09-12T00:43:39.696Z,101261.59
2022-09-12T00:46:26.693Z,101264.50
2022-09-12T00:49:03.553Z,101259.66
2022-09-12T00:51:32.241Z,101251.00
2022-09-12T00:54:00.233Z,101259.03
2022-09-12T00:56:27.718Z,101248.84
2022-09-12T00:59:17.379Z,101250.56
2022-09-12T01:01:45.210Z,101248.00
2022-09-12T01:04:12.931Z,101246.28
2022-09-12T01:06:42.665Z,101247.91
2022-09-12T01:09:12.258Z,101246.84
2022-09-12T01:11:39.964Z,101246.72
2022-09-12T01:14:07.655Z,101242.78
2022-09-12T01:16:38.015Z,101237.66
2022-09-12T01:19:07.818Z,101241.72
2022-09-12T01:21:54.463Z,101237.56
2022-09-12T01:24:30.037Z,101241.94
2022-09-12T01:27:08.777Z,101235.63
2022-09-12T01:30:04.948Z,101244.31
2022-09-12T01:32:44.195Z,101238.94
2022-09-12T01:35:10.695Z,101225.38
2022-09-12T01:38:16.631Z,101226.22
2022-09-12T01:40:53.260Z,101229.13
2022-09-12T01:43:26.784Z,101231.56
2022-09-12T01:45:59.071Z,101226.88
2022-09-12T01:48:35.892Z,101222.50
2022-09-12T01:51:26.314Z,101220.34
2022-09-12T01:53:58.776Z,101220.50
2022-09-12T01:56:28.795Z,101220.25
2022-09-12T01:59:15.419Z,101224.97
2022-09-12T02:01:46.873Z,101227.66
2022-09-12T02:04:23.334Z,101219.19
2022-09-12T02:06:58.308Z,101217.16
2022-09-12T02:09:29.080Z,101204.22
2022-09-12T02:12:01.422Z,101198.13
2022-09-12T02:14:38.306Z,101195.44
2022-09-12T02:17:16.912Z,101189.03
2022-09-12T02:19:50.664Z,101189.56
2022-09-12T02:22:18.449Z,101190.09
2022-09-12T02:24:47.705Z,101199.63
2022-09-12T02:27:16.541Z,101191.34
2022-09-12T02:29:44.855Z,101191.09
2022-09-12T02:32:39.237Z,101193.06
2022-09-12T02:35:13.952Z,101192.44
2022-09-12T02:38:04.526Z,101189.00
2022-09-12T02:40:31.325Z,101190.81
2022-09-12T02:42:58.073Z,101195.66
2022-09-12T02:45:24.776Z,101191.06
2022-09-12T02:47:57.715Z,101189.00
2022-09-12T02:50:24.431Z,101183.47
2022-09-12T02:52:53.817Z,101179.38
2022-09-12T02:55:20.481Z,101185.59
2022-09-12T02:57:47.072Z,101187.53
2022-09-12T03:00:14.405Z,101188.25
2022-09-12T03:03:18.629Z,101181.75
2022-09-12T03:06:14.913Z,101181.84
2022-09-12T03:09:13.806Z,101178.31
2022-09-12T03:12:00.499Z,101175.44
2022-09-12T03:14:50.339Z,101176.59
2022-09-12T03:17:32.387Z,101169.13
2022-09-12T03:20:20.218Z,101174.16
2022-09-12T03:22:53.896Z,101171.94
2022-09-12T03:25:28.922Z,101178.44
2022-09-12T03:28:01.719Z,101173.63
2022-09-12T03:30:28.384Z,101169.69
2022-09-12T03:32:55.506Z,101169.56
2022-09-12T03:35:24.630Z,101173.94
2022-09-12T03:37:52.266Z,101173.22
2022-09-12T03:40:19.019Z,101162.38
2022-09-12T03:42:45.633Z,101174.47
2022-09-12T03:45:12.248Z,101168.81
2022-09-12T03:47:38.937Z,101166.34
2022-09-12T03:50:06.606Z,101164.63
2022-09-12T03:52:33.603Z,101169.34
2022-09-12T03:55:00.267Z,101164.88
2022-09-12T03:57:26.881Z,101165.63
2022-09-12T03:59:53.439Z,101164.63
2022-09-12T04:02:20.089Z,101156.94
2022-09-12T04:04:58.837Z,101159.28
2022-09-12T04:07:25.549Z,101161.66
2022-09-12T04:09:53.316Z,101162.81
2022-09-12T04:12:20.461Z,101163.78
2022-09-12T04:14:47.024Z,101158.66
2022-09-12T04:17:14.242Z,101158.31
2022-09-12T04:19:40.849Z,101161.56
2022-09-12T04:22:07.405Z,101146.91
2022-09-12T04:24:34.027Z,101144.78
2022-09-12T04:27:03.739Z,101142.97
2022-09-12T04:29:32.614Z,101142.00
2022-09-12T04:31:59.167Z,101142.00
2022-09-12T04:34:26.091Z,101138.34
2022-09-12T04:36:52.733Z,101140.06
2022-09-12T04:39:19.651Z,101143.25
2022-09-12T04:41:46.357Z,101149.78
2022-09-12T04:44:14.844Z,101137.72
2022-09-12T04:46:44.936Z,101140.28
2022-09-12T04:49:12.907Z,101144.97
2022-09-12T04:51:41.408Z,101131.19
2022-09-12T04:54:16.988Z,101129.19
2022-09-12T04:56:59.111Z,101136.22
2022-09-12T04:59:32.225Z,101129.16
2022-09-12T05:02:05.049Z,101128.31
2022-09-12T05:04:38.855Z,101132.25
2022-09-12T05:07:09.950Z,101127.88
2022-09-12T05:09:40.499Z,101123.91
2022-09-12T05:12:10.230Z,101118.47
2022-09-12T05:14:52.370Z,101121.59
2022-09-12T05:17:27.024Z,101125.75
2022-09-12T05:20:16.945Z,101124.38
2022-09-12T05:22:46.606Z,101124.59
2022-09-12T05:25:13.276Z,101121.78
2022-09-12T05:27:45.461Z,101127.47
2022-09-12T05:30:17.187Z,101127.03
2022-09-12T05:32:46.804Z,101116.25
2022-09-12T05:35:14.899Z,101124.69
2022-09-12T05:37:52.795Z,101119.13
2022-09-12T05:40:28.564Z,101114.09
2022-09-12T05:43:10.781Z,101119.78
2022-09-12T05:45:56.712Z,101123.16
2022-09-12T05:48:29.337Z,101127.03
2022-09-12T05:51:24.956Z,101120.72
2022-09-12T05:53:59.824Z,101122.31
2022-09-12T05:56:36.667Z,101122.84
2022-09-12T05:59:05.960Z,101122.41
2022-09-12T06:01:34.404Z,101127.66
2022-09-12T06:04:09.981Z,101128.06
2022-09-12T06:06:45.110Z,101142.38
2022-09-12T06:09:18.620Z,101139.78
2022-09-12T06:11:46.441Z,101143.66
2022-09-12T06:14:14.779Z,101143.22
2022-09-12T06:16:41.550Z,101152.19
2022-09-12T06:19:31.300Z,101144.97
2022-09-12T06:22:03.252Z,101147.75
2022-09-12T06:24:35.661Z,101143.31
2022-09-12T06:27:11.065Z,101142.56
2022-09-12T06:29:46.250Z,101149.28
2022-09-12T06:32:24.752Z,101139.22
2022-09-12T06:34:54.516Z,101141.50
2022-09-12T06:41:15.789Z,101135.47
2022-09-12T06:43:56.833Z,101141.84
2022-09-12T06:46:33.525Z,101144.50
2022-09-12T06:49:27.748Z,101148.66
2022-09-12T06:52:03.033Z,101150.09
2022-09-12T06:54:36.337Z,101152.53
2022-09-12T06:57:02.945Z,101145.97
2022-09-12T06:59:32.086Z,101146.16
2022-09-12T07:01:58.762Z,101147.56
2022-09-12T07:04:25.382Z,101150.50
2022-09-12T07:06:52.008Z,101147.97
2022-09-12T07:09:18.599Z,101153.06
2022-09-12T07:11:45.945Z,101148.22
2022-09-12T07:14:20.139Z,101144.34
2022-09-12T07:16:46.745Z,101152.00
2022-09-12T07:19:14.184Z,101155.94
2022-09-12T07:21:41.692Z,101156.69
2022-09-12T07:24:11.809Z,101159.47
2022-09-12T07:26:40.190Z,101150.72
2022-09-12T07:29:35.465Z,101144.66
2022-09-12T07:31:53.822Z,101147.72
2022-09-12T07:34:20.381Z,101136.63
2022-09-12T07:36:46.935Z,101141.03
2022-09-12T07:39:13.577Z,101142.97
2022-09-12T07:41:40.301Z,101140.53
2022-09-12T07:44:07.315Z,101141.50
2022-09-12T07:46:33.900Z,101138.56
2022-09-12T07:49:01.618Z,101145.31
2022-09-12T07:51:29.995Z,101144.94
2022-09-12T07:53:56.678Z,101155.16
2022-09-12T07:56:29.330Z,101159.41
2022-09-12T07:58:57.023Z,101152.97
2022-09-12T08:01:24.059Z,101147.34
2022-09-12T08:03:58.018Z,101147.25
2022-09-12T08:06:26.078Z,101145.16
2022-09-12T08:08:54.854Z,101146.66
2022-09-12T08:11:22.934Z,101156.41
2022-09-12T08:13:54.850Z,101152.72
2022-09-12T08:16:23.842Z,101159.47
2022-09-12T08:18:50.521Z,101162.47
2022-09-12T08:21:31.484Z,101153.00
2022-09-12T08:24:00.912Z,101156.66
2022-09-12T08:26:27.661Z,101157.66
2022-09-12T08:28:54.969Z,101151.81
2022-09-12T08:31:25.501Z,101146.81
2022-09-12T08:33:52.207Z,101136.69
2022-09-12T08:36:20.489Z,101147.75
2022-09-12T08:38:49.116Z,101141.63
2022-09-12T08:41:21.030Z,101139.97
2022-09-12T08:44:11.084Z,101134.91
2022-09-12T08:47:07.101Z,101139.78
2022-09-12T08:49:59.761Z,101134.66
2022-09-12T08:56:31.890Z,101139.75
2022-09-12T09:02:50.358Z,101152.41
2022-09-12T09:05:35.328Z,101153.47
2022-09-12T09:08:15.656Z,101148.09
2022-09-12T09:11:13.117Z,101143.69
2022-09-12T09:14:24.672Z,101140.66
2022-09-12T09:16:54.385Z,101146.22
2022-09-12T09:19:41.100Z,101147.41
2022-09-12T09:22:17.177Z,101143.94
2022-09-12T09:24:51.244Z,101152.72
2022-09-12T09:27:47.156Z,101146.47
2022-09-12T09:30:21.611Z,101133.38
2022-09-12T09:33:42.610Z,101135.53
2022-09-12T09:47:12.393Z,101116.28
2022-09-12T09:49:39.188Z,101116.94
2022-09-12T09:52:08.755Z,101114.00
2022-09-12T09:54:39.858Z,101109.34
2022-09-12T09:57:35.265Z,101107.69
2022-09-12T10:00:27.442Z,101110.97
2022-09-12T10:03:29.022Z,101110.72
2022-09-12T10:06:00.386Z,101110.06
2022-09-12T10:08:29.715Z,101103.41
2022-09-12T10:11:09.657Z,101108.94
2022-09-12T10:13:54.687Z,101100.34
2022-09-12T10:16:22.689Z,101098.31
2022-09-12T10:18:53.726Z,101096.78
2022-09-12T10:21:34.280Z,101097.94
2022-09-12T10:24:19.668Z,101094.03
2022-09-12T10:26:56.540Z,101094.34
2022-09-12T10:29:32.472Z,101085.94
2022-09-12T10:32:03.379Z,101088.69
2022-09-12T10:34:33.743Z,101075.75
2022-09-12T10:37:09.116Z,101077.13
2022-09-12T10:39:38.584Z,101075.72
2022-09-12T10:42:05.821Z,101065.63
2022-09-12T10:44:34.493Z,101069.34
2022-09-12T10:47:22.805Z,101063.91
2022-09-12T10:49:51.148Z,101074.31
2022-09-12T10:52:23.499Z,101064.13
2022-09-12T10:54:51.521Z,101056.25
2022-09-12T10:57:41.361Z,101060.53
2022-09-12T11:00:17.681Z,101061.38
2022-09-12T11:02:49.119Z,101056.63
2022-09-12T11:05:32.243Z,101052.59
2022-09-12T11:08:14.773Z,101061.59
2022-09-12T11:11:06.522Z,101049.91
2022-09-12T11:14:01.183Z,101049.41
2022-09-12T11:16:43.129Z,101045.41
2022-09-12T11:19:44.317Z,101046.41
2022-09-12T11:22:29.841Z,101041.63
2022-09-12T11:25:20.564Z,101037.03
2022-09-12T11:28:03.729Z,101032.69
2022-09-12T11:30:37.648Z,101043.88
2022-09-12T11:33:09.399Z,101029.97
2022-09-12T11:35:42.409Z,101026.25
2022-09-12T11:38:33.181Z,101028.81
2022-09-12T11:41:06.652Z,101021.31
2022-09-12T11:43:48.992Z,101015.56
2022-09-12T11:46:21.647Z,101015.56
2022-09-12T11:48:51.233Z,101015.25
2022-09-12T11:51:26.138Z,101017.09
2022-09-12T11:54:31.807Z,101007.13
2022-09-12T11:57:08.161Z,101002.53
2022-09-12T11:59:46.881Z,101001.88
2022-09-12T12:02:20.333Z,101009.47
2022-09-12T12:05:02.265Z,101002.00
2022-09-12T12:07:35.360Z,101003.53
2022-09-12T12:10:02.233Z,100999.31
2022-09-12T12:12:30.444Z,101003.19
2022-09-12T12:14:58.049Z,101004.16
2022-09-12T12:17:25.602Z,101006.38
2022-09-12T12:20:05.799Z,100993.50
2022-09-12T12:22:34.410Z,100989.59
2022-09-12T12:25:03.902Z,100998.06
2022-09-12T12:27:49.387Z,100994.84
2022-09-12T12:30:31.275Z,100987.53
2022-09-12T12:33:16.182Z,100982.66
2022-09-12T12:35:46.850Z,100984.50
2022-09-12T12:38:45.977Z,100975.72
2022-09-12T12:41:18.727Z,100982.13
2022-09-12T12:43:53.188Z,100970.44
2022-09-12T12:46:22.722Z,100973.34
2022-09-12T12:48:53.212Z,100958.75
2022-09-12T12:51:33.532Z,100950.94
2022-09-12T12:54:09.803Z,100938.19
2022-09-12T12:56:41.463Z,100937.66
2022-09-12T12:59:20.826Z,100946.28
2022-09-12T13:01:55.360Z,100942.34
2022-09-12T13:04:23.748Z,100947.38
2022-09-12T13:07:42.434Z,100942.31
2022-09-12T13:10:23.740Z,100941.13
2022-09-12T13:12:50.931Z,100944.25
2022-09-12T13:15:35.921Z,100943.09
2022-09-12T13:18:14.985Z,100931.84
2022-09-12T13:20:48.508Z,100926.88
2022-09-12T13:23:26.834Z,100919.97
2022-09-12T13:25:58.213Z,100914.88
2022-09-12T13:28:26.503Z,100918.84
2022-09-12T13:31:01.058Z,100912.56
2022-09-12T13:33:46.481Z,100911.19
2022-09-12T13:36:13.004Z,100911.56
2022-09-12T13:39:02.284Z,100915.97
2022-09-12T13:41:56.960Z,100923.28
2022-09-12T13:44:24.282Z,100918.00
2022-09-12T13:46:51.187Z,100913.56
2022-09-12T13:49:20.711Z,100911.53
2022-09-12T13:51:54.964Z,100907.03
2022-09-12T13:54:24.583Z,100905.00
2022-09-12T13:56:51.359Z,100907.53
2022-09-12T13:59:17.951Z,100906.59
2022-09-12T14:01:48.747Z,100896.75
2022-09-12T14:04:40.139Z,100891.97
2022-09-12T14:07:20.385Z,100900.03
2022-09-12T14:09:54.994Z,100891.88
2022-09-12T14:12:51.983Z,100885.59
2022-09-12T14:15:23.600Z,100888.75
2022-09-12T14:17:52.799Z,100885.13
2022-09-12T14:20:20.938Z,100883.09
2022-09-12T14:22:51.035Z,100880.28
2022-09-12T14:25:22.355Z,100874.78
2022-09-12T14:27:52.689Z,100863.66
2022-09-12T14:30:28.384Z,100862.34
2022-09-12T14:33:05.710Z,100854.81
2022-09-12T14:35:33.407Z,100855.09
2022-09-12T14:38:13.945Z,100842.06
2022-09-12T14:40:51.086Z,100843.28
2022-09-12T14:43:28.966Z,100839.53
2022-09-12T14:45:59.911Z,100848.59
2022-09-12T14:48:29.360Z,100845.63
2022-09-12T14:50:56.136Z,100842.56
2022-09-12T14:53:35.606Z,100833.13
2022-09-12T14:56:05.202Z,100836.81
2022-09-12T14:58:31.835Z,100830.16
2022-09-12T15:01:08.069Z,100824.91
2022-09-12T15:03:52.080Z,100813.56
2022-09-12T15:06:31.787Z,100822.31
2022-09-12T15:09:00.797Z,100819.94
2022-09-12T15:11:27.592Z,100822.38
2022-09-12T15:13:54.281Z,100825.34
2022-09-12T15:16:21.062Z,100819.47
2022-09-12T15:18:47.659Z,100822.00
2022-09-12T15:21:18.122Z,100826.50
2022-09-12T15:23:47.158Z,100819.78
2022-09-12T15:26:22.616Z,100821.66
2022-09-12T15:28:50.330Z,100810.53
2022-09-12T15:31:28.314Z,100811.94
2022-09-12T15:33:55.837Z,100791.53
2022-09-12T15:36:23.638Z,100795.50
2022-09-12T15:38:50.979Z,100794.66
2022-09-12T15:41:23.768Z,100795.84
2022-09-12T15:43:50.673Z,100782.75
2022-09-12T15:46:18.566Z,100781.63
2022-09-12T15:48:45.704Z,100785.59
2022-09-12T15:51:17.525Z,100789.78
2022-09-12T15:53:44.734Z,100788.78
2022-09-12T15:56:12.055Z,100788.53
2022-09-12T15:58:49.717Z,100781.00
2022-09-12T16:01:24.297Z,100778.09
2022-09-12T16:03:51.011Z,100779.28
2022-09-12T16:06:17.685Z,100768.78
2022-09-12T16:08:44.314Z,100764.41
2022-09-12T16:11:20.618Z,100755.75
2022-09-12T16:13:47.366Z,100753.06
2022-09-12T16:16:13.982Z,100745.72
2022-09-12T16:18:40.912Z,100752.75
2022-09-12T16:21:12.662Z,100745.59
2022-09-12T16:23:45.664Z,100742.53
2022-09-12T16:26:12.519Z,100742.53
2022-09-12T16:28:39.377Z,100735.97
2022-09-12T16:31:07.924Z,100735.75
2022-09-12T16:33:35.191Z,100743.16
2022-09-12T16:36:06.559Z,100747.56
2022-09-12T16:38:33.920Z,100745.03
2022-09-12T16:41:05.229Z,100739.00
2022-09-12T16:43:32.900Z,100738.88
2022-09-12T16:46:22.876Z,100735.22
2022-09-12T16:48:55.139Z,100735.84
2022-09-12T16:51:31.354Z,100731.53
2022-09-12T16:53:58.222Z,100729.41
2022-09-12T16:56:25.605Z,100726.94
2022-09-12T16:58:53.192Z,100725.97
2022-09-12T17:01:22.479Z,100723.88
2022-09-12T17:03:53.617Z,100718.88
2022-09-12T17:06:20.335Z,100725.06
2022-09-12T17:08:52.000Z,100719.19
2022-09-12T17:11:24.023Z,100717.75
2022-09-12T17:14:04.503Z,100713.91
2022-09-12T17:16:33.102Z,100712.09
2022-09-12T17:18:59.728Z,100719.44
2022-09-12T17:21:26.322Z,100709.47
2022-09-12T17:23:52.947Z,100705.13
2022-09-12T17:26:20.864Z,100708.66
2022-09-12T17:28:47.826Z,100709.53
2022-09-12T17:31:15.544Z,100699.06
2022-09-12T17:33:42.405Z,100700.09
2022-09-12T17:36:13.624Z,100703.50
2022-09-12T17:38:40.194Z,100694.38
2022-09-12T17:41:16.155Z,100693.75
2022-09-12T17:43:43.495Z,100703.25
2022-09-12T17:46:10.272Z,100692.41
2022-09-12T17:48:37.364Z,100692.94
2022-09-12T17:51:11.940Z,100686.66
2022-09-12T17:53:38.603Z,100686.50
2022-09-12T17:56:06.339Z,100680.59
2022-09-12T17:58:33.619Z,100681.59
2022-09-12T18:01:20.915Z,100685.50
2022-09-12T18:03:48.194Z,100687.34
2022-09-12T18:06:15.320Z,100688.34
2022-09-12T18:08:42.167Z,100703.09
2022-09-12T18:11:09.064Z,100700.03
2022-09-12T18:13:38.173Z,100697.00
2022-09-12T18:16:07.680Z,100700.03
2022-09-12T18:18:34.868Z,100696.81
2022-09-12T18:21:02.475Z,100691.03
2022-09-12T18:23:29.465Z,100692.41
2022-09-12T18:26:07.444Z,100672.41
2022-09-12T18:28:36.247Z,100674.13
2022-09-12T18:31:03.107Z,100678.16
2022-09-12T18:33:29.700Z,100682.03
2022-09-12T18:35:56.802Z,100681.84
2022-09-12T18:38:23.391Z,100681.50
2022-09-12T18:40:50.028Z,100676.47
2022-09-12T18:43:16.703Z,100687.25
2022-09-12T18:45:43.304Z,100681.81
2022-09-12T18:48:10.112Z,100673.38
2022-09-12T18:50:36.752Z,100675.06
2022-09-12T18:53:03.729Z,100672.34
2022-09-12T18:55:32.190Z,100673.19
2022-09-12T18:57:58.880Z,100664.88
2022-09-12T19:00:25.632Z,100664.19
2022-09-12T19:02:52.372Z,100660.84
2022-09-12T19:05:19.032Z,100659.13
2022-09-12T19:07:45.659Z,100649.50
2022-09-12T19:10:12.250Z,100645.59
2022-09-12T19:12:38.837Z,100650.81
2022-09-12T19:15:06.927Z,100657.06
2022-09-12T19:17:33.555Z,100653.34
2022-09-12T19:20:00.229Z,100656.53
2022-09-12T19:22:26.918Z,100667.81
2022-09-12T19:24:53.715Z,100664.56
2022-09-12T19:27:20.360Z,100667.44
2022-09-12T19:29:46.953Z,100656.47
2022-09-12T19:32:13.544Z,100656.78
2022-09-12T19:34:40.236Z,100649.03
2022-09-12T19:37:06.863Z,100645.47
2022-09-12T19:39:33.748Z,100646.47
2022-09-12T19:42:00.341Z,100659.81
2022-09-12T19:44:27.728Z,100648.81
2022-09-12T19:46:54.379Z,100651.84
2022-09-12T19:49:21.002Z,100658.25
2022-09-12T19:51:47.685Z,100657.75
2022-09-12T19:54:14.260Z,100657.41
2022-09-12T19:56:40.969Z,100665.34
2022-09-12T19:59:08.794Z,100655.72
2022-09-12T20:01:37.230Z,100658.56
2022-09-12T20:04:04.745Z,100654.81
2022-09-12T20:06:31.387Z,100648.06
2022-09-12T20:08:58.154Z,100655.94
2022-09-12T20:11:25.899Z,100666.72
2022-09-12T20:13:55.667Z,100656.44
2022-09-12T20:16:25.723Z,100650.66
2022-09-12T20:18:57.495Z,100648.34
2022-09-12T20:21:25.831Z,100648.34
2022-09-12T20:23:52.759Z,100643.25
2022-09-12T20:26:20.521Z,100637.84
2022-09-12T20:28:47.428Z,100640.09
2022-09-12T20:31:15.546Z,100637.00
2022-09-12T20:33:49.822Z,100638.19
2022-09-12T20:36:19.597Z,100633.16
2022-09-12T20:38:50.984Z,100623.50
2022-09-12T20:41:19.022Z,100627.59
2022-09-12T20:43:52.349Z,100613.09
2022-09-12T20:46:21.875Z,100613.53
2022-09-12T20:48:50.477Z,100612.75
2022-09-12T20:51:21.024Z,100603.31
2022-09-12T20:53:48.351Z,100604.31
2022-09-12T20:56:15.231Z,100601.31
2022-09-12T20:58:44.502Z,100600.97
2022-09-12T21:01:12.104Z,100597.72
2022-09-12T21:03:39.672Z,100593.25
2022-09-12T21:06:07.623Z,100579.59
2022-09-12T21:08:34.353Z,100582.28
2022-09-12T21:11:01.811Z,100578.75
2022-09-12T21:13:28.811Z,100576.38
2022-09-12T21:16:00.101Z,100579.97
2022-09-12T21:18:26.977Z,100574.03
2022-09-12T21:20:55.047Z,100578.13
2022-09-12T21:23:22.484Z,100575.72
2022-09-12T21:25:52.923Z,100576.91
2022-09-12T21:28:19.971Z,100576.94
2022-09-12T21:30:50.756Z,100571.34
2022-09-12T21:33:19.215Z,100567.50
2022-09-12T21:35:47.086Z,100577.66
2022-09-12T21:38:15.175Z,100573.59
2022-09-12T21:40:41.972Z,100578.75
2022-09-12T21:43:12.583Z,100588.53
2022-09-12T21:45:40.056Z,100590.00
2022-09-12T21:48:06.652Z,100580.38
2022-09-12T21:50:33.261Z,100589.47
2022-09-12T21:52:59.979Z,100582.75
2022-09-12T21:55:27.381Z,100579.59
2022-09-12T21:57:57.089Z,100566.75
2022-09-12T22:00:24.049Z,100574.91
2022-09-12T22:02:50.660Z,100589.34
2022-09-12T22:05:17.611Z,100601.25
2022-09-12T22:07:44.740Z,100591.00
2022-09-12T22:10:11.450Z,100583.97
2022-09-12T22:12:40.723Z,100586.47
2022-09-12T22:15:36.318Z,100593.88
2022-09-12T22:17:56.609Z,100600.41
2022-09-12T22:20:23.220Z,100600.03
2022-09-12T22:23:08.484Z,100597.03
2022-09-12T22:25:35.202Z,100603.25
2022-09-12T22:28:02.018Z,100607.50
2022-09-12T22:30:28.744Z,100606.13
2022-09-12T22:32:55.319Z,100605.72
2022-09-12T22:35:21.945Z,100612.97
2022-09-12T22:37:48.573Z,100603.19
2022-09-12T22:40:15.894Z,100592.88
2022-09-12T22:42:42.527Z,100605.03
2022-09-12T22:45:09.648Z,100599.72
2022-09-12T22:47:36.251Z,100585.41
2022-09-12T22:50:03.118Z,100588.69
2022-09-12T22:52:29.685Z,100590.69
2022-09-12T22:54:56.257Z,100598.78
2022-09-12T22:57:23.064Z,100607.53
2022-09-12T22:59:50.300Z,100601.47
2022-09-12T23:02:16.917Z,100609.53
2022-09-12T23:04:43.960Z,100609.25
2022-09-12T23:07:10.808Z,100616.44
2022-09-12T23:09:37.394Z,100612.91
2022-09-12T23:12:04.519Z,100602.59
2022-09-12T23:14:31.155Z,100605.16
2022-09-12T23:16:57.710Z,100596.38
2022-09-12T23:19:24.332Z,100592.09
2022-09-12T23:21:51.002Z,100591.59
2022-09-12T23:24:17.968Z,100590.31
2022-09-12T23:26:46.544Z,100581.91
2022-09-12T23:29:13.134Z,100585.16
2022-09-12T23:31:39.725Z,100583.09
2022-09-12T23:34:06.377Z,100577.91
2022-09-12T23:36:33.812Z,100574.31
2022-09-12T23:39:00.386Z,100575.81
2022-09-12T23:41:27.089Z,100585.06
2022-09-12T23:43:53.823Z,100580.16
2022-09-12T23:46:24.237Z,100578.31
2022-09-12T23:48:53.278Z,100585.53
2022-09-12T23:51:21.806Z,100580.31
2022-09-12T23:53:51.260Z,100573.69
2022-09-12T23:56:17.996Z,100561.47
2022-09-12T23:58:44.592Z,100560.28
